CheckWX is a tool to help pilots better visualize weather data.  It is not intended as a substitute for an official pre-flight weather briefing.

00:55:47 UTC

KGHG METAR
Marshfield Municipal - George Harlow Field Airport
Marshfield, Massachusetts, USA
Current

21 mins ago

KGHG 230035Z AUTO 22005KT 10SM CLR 13/04 A3026 RMK AO2
Observed
May-23 @ 00:35 UTC
Wind
  • 220° at 5 KTS
Visibility
10 SM
Flight Rules
VFR
Cloud Levels
  • Clear skies
Temperature
13°C / 55°F
Dewpoint
C / 39°F
Humidity
55%
Altimeter
30.26" Hg
Pressure
1024.72 hPa
Previous

41 mins ago

KGHG 230015Z AUTO 21005KT 10SM CLR 13/04 A3025 RMK AO2
Observed
May-23 @ 00:15 UTC
Wind
  • 210° at 5 KTS
Visibility
10 SM
Flight Rules
VFR
Cloud Levels
  • Clear skies
Temperature
13°C / 55°F
Dewpoint
C / 39°F
Humidity
55%
Altimeter
30.25" Hg
Pressure
1024.42 hPa
Previous

1 hour ago

KGHG 222355Z AUTO 00000KT 10SM CLR 14/05 A3025 RMK AO2
Observed
May-22 @ 23:55 UTC
Visibility
10 SM
Flight Rules
VFR
Cloud Levels
  • Clear skies
Temperature
14°C / 57°F
Dewpoint
C / 41°F
Humidity
55%
Altimeter
30.25" Hg
Pressure
1024.42 hPa